sensor_id;sensor_type;location;lat;lon;timestamp;temperature;humidity
40085;DHT22;25786;51.504;7.344;2022-11-11T00:01:13;10.50;76.90
40085;DHT22;25786;51.504;7.344;2022-11-11T00:03:39;10.60;77.10
40085;DHT22;25786;51.504;7.344;2022-11-11T00:06:06;10.50;77.30
40085;DHT22;25786;51.504;7.344;2022-11-11T00:08:32;10.50;77.30
40085;DHT22;25786;51.504;7.344;2022-11-11T00:10:59;10.50;77.40
40085;DHT22;25786;51.504;7.344;2022-11-11T00:13:24;10.50;77.50
40085;DHT22;25786;51.504;7.344;2022-11-11T00:15:50;10.50;77.90
40085;DHT22;25786;51.504;7.344;2022-11-11T00:18:15;10.50;77.80
40085;DHT22;25786;51.504;7.344;2022-11-11T00:20:59;10.40;77.80
40085;DHT22;25786;51.504;7.344;2022-11-11T00:23:43;10.40;78.00
40085;DHT22;25786;51.504;7.344;2022-11-11T00:26:27;10.40;78.00
40085;DHT22;25786;51.504;7.344;2022-11-11T00:28:53;10.40;78.20
40085;DHT22;25786;51.504;7.344;2022-11-11T00:31:18;10.40;78.00
40085;DHT22;25786;51.504;7.344;2022-11-11T00:33:44;10.40;78.10
40085;DHT22;25786;51.504;7.344;2022-11-11T00:36:09;10.30;78.30
40085;DHT22;25786;51.504;7.344;2022-11-11T00:38:35;10.30;78.30
40085;DHT22;25786;51.504;7.344;2022-11-11T00:41:18;10.30;78.50
40085;DHT22;25786;51.504;7.344;2022-11-11T00:43:44;10.30;78.60
40085;DHT22;25786;51.504;7.344;2022-11-11T00:46:10;10.30;78.30
40085;DHT22;25786;51.504;7.344;2022-11-11T00:48:54;10.20;78.60
40085;DHT22;25786;51.504;7.344;2022-11-11T00:51:38;10.20;78.80
40085;DHT22;25786;51.504;7.344;2022-11-11T00:54:04;10.10;79.00
40085;DHT22;25786;51.504;7.344;2022-11-11T00:56:30;10.20;78.80
40085;DHT22;25786;51.504;7.344;2022-11-11T00:58:55;10.20;78.70
40085;DHT22;25786;51.504;7.344;2022-11-11T01:01:21;10.20;78.60
40085;DHT22;25786;51.504;7.344;2022-11-11T01:03:46;10.10;78.90
40085;DHT22;25786;51.504;7.344;2022-11-11T01:06:12;10.20;78.70
40085;DHT22;25786;51.504;7.344;2022-11-11T01:08:37;10.10;78.80
40085;DHT22;25786;51.504;7.344;2022-11-11T01:11:03;10.10;79.00
40085;DHT22;25786;51.504;7.344;2022-11-11T01:13:29;10.10;79.30
40085;DHT22;25786;51.504;7.344;2022-11-11T01:16:02;10.10;79.10
40085;DHT22;25786;51.504;7.344;2022-11-11T01:18:28;10.00;79.20
40085;DHT22;25786;51.504;7.344;2022-11-11T01:21:00;10.00;79.30
40085;DHT22;25786;51.504;7.344;2022-11-11T01:23:26;10.00;79.00
40085;DHT22;25786;51.504;7.344;2022-11-11T01:25:52;10.10;78.80
40085;DHT22;25786;51.504;7.344;2022-11-11T01:28:18;10.10;78.60
40085;DHT22;25786;51.504;7.344;2022-11-11T01:30:43;10.10;78.30
40085;DHT22;25786;51.504;7.344;2022-11-11T01:33:09;10.10;78.60
40085;DHT22;25786;51.504;7.344;2022-11-11T01:35:39;10.10;78.50
40085;DHT22;25786;51.504;7.344;2022-11-11T01:38:04;10.10;78.50
40085;DHT22;25786;51.504;7.344;2022-11-11T01:40:30;10.10;78.30
40085;DHT22;25786;51.504;7.344;2022-11-11T01:48:16;10.10;78.10
40085;DHT22;25786;51.504;7.344;2022-11-11T01:51:02;10.20;77.90
40085;DHT22;25786;51.504;7.344;2022-11-11T01:53:28;10.10;78.10
40085;DHT22;25786;51.504;7.344;2022-11-11T01:55:54;10.10;78.30
40085;DHT22;25786;51.504;7.344;2022-11-11T01:58:19;10.10;78.20
40085;DHT22;25786;51.504;7.344;2022-11-11T02:00:45;10.00;78.40
40085;DHT22;25786;51.504;7.344;2022-11-11T02:03:10;10.00;78.30
40085;DHT22;25786;51.504;7.344;2022-11-11T02:05:37;10.10;78.40
40085;DHT22;25786;51.504;7.344;2022-11-11T02:08:23;10.10;78.10
40085;DHT22;25786;51.504;7.344;2022-11-11T02:11:08;10.10;78.00
40085;DHT22;25786;51.504;7.344;2022-11-11T02:13:36;10.10;77.80
40085;DHT22;25786;51.504;7.344;2022-11-11T02:16:21;10.10;77.70
40085;DHT22;25786;51.504;7.344;2022-11-11T02:18:46;10.10;77.60
40085;DHT22;25786;51.504;7.344;2022-11-11T02:21:12;10.20;77.10
40085;DHT22;25786;51.504;7.344;2022-11-11T02:23:42;10.20;77.60
40085;DHT22;25786;51.504;7.344;2022-11-11T02:26:09;10.20;77.70
40085;DHT22;25786;51.504;7.344;2022-11-11T02:28:35;10.10;77.40
40085;DHT22;25786;51.504;7.344;2022-11-11T02:31:01;10.10;77.40
40085;DHT22;25786;51.504;7.344;2022-11-11T02:33:27;10.10;77.60
40085;DHT22;25786;51.504;7.344;2022-11-11T02:35:53;10.10;77.80
40085;DHT22;25786;51.504;7.344;2022-11-11T02:38:23;10.10;77.70
40085;DHT22;25786;51.504;7.344;2022-11-11T02:40:48;10.10;77.50
40085;DHT22;25786;51.504;7.344;2022-11-11T02:43:32;10.10;77.70
40085;DHT22;25786;51.504;7.344;2022-11-11T02:45:58;10.00;77.70
40085;DHT22;25786;51.504;7.344;2022-11-11T02:48:24;10.00;77.90
40085;DHT22;25786;51.504;7.344;2022-11-11T02:50:50;10.00;77.80
40085;DHT22;25786;51.504;7.344;2022-11-11T02:53:15;9.90;78.00
40085;DHT22;25786;51.504;7.344;2022-11-11T02:55:41;9.90;78.20
40085;DHT22;25786;51.504;7.344;2022-11-11T02:58:06;9.90;78.00
40085;DHT22;25786;51.504;7.344;2022-11-11T03:00:32;9.90;78.00
40085;DHT22;25786;51.504;7.344;2022-11-11T03:02:57;9.90;78.10
40085;DHT22;25786;51.504;7.344;2022-11-11T03:05:23;9.90;78.00
40085;DHT22;25786;51.504;7.344;2022-11-11T03:07:48;9.90;77.80
40085;DHT22;25786;51.504;7.344;2022-11-11T03:10:14;9.90;77.90
40085;DHT22;25786;51.504;7.344;2022-11-11T03:12:39;9.90;77.90
40085;DHT22;25786;51.504;7.344;2022-11-11T03:15:05;9.80;78.00
40085;DHT22;25786;51.504;7.344;2022-11-11T03:17:31;9.90;78.10
40085;DHT22;25786;51.504;7.344;2022-11-11T03:20:06;9.90;77.60
40085;DHT22;25786;51.504;7.344;2022-11-11T03:23:00;9.90;77.40
40085;DHT22;25786;51.504;7.344;2022-11-11T03:25:26;9.90;77.80
40085;DHT22;25786;51.504;7.344;2022-11-11T03:30:32;9.90;78.10
40085;DHT22;25786;51.504;7.344;2022-11-11T03:32:58;9.90;78.10
40085;DHT22;25786;51.504;7.344;2022-11-11T03:35:23;9.90;77.80
40085;DHT22;25786;51.504;7.344;2022-11-11T03:37:49;9.90;78.30
40085;DHT22;25786;51.504;7.344;2022-11-11T03:40:33;9.90;77.80
40085;DHT22;25786;51.504;7.344;2022-11-11T03:42:59;9.90;77.80
40085;DHT22;25786;51.504;7.344;2022-11-11T03:45:24;9.90;77.60
40085;DHT22;25786;51.504;7.344;2022-11-11T03:47:49;9.90;77.80
40085;DHT22;25786;51.504;7.344;2022-11-11T03:50:15;9.80;77.50
40085;DHT22;25786;51.504;7.344;2022-11-11T03:52:41;9.90;77.40
40085;DHT22;25786;51.504;7.344;2022-11-11T03:55:07;9.90;77.60
40085;DHT22;25786;51.504;7.344;2022-11-11T03:57:33;9.80;77.50
40085;DHT22;25786;51.504;7.344;2022-11-11T03:59:58;9.90;77.60
40085;DHT22;25786;51.504;7.344;2022-11-11T04:02:24;9.90;77.20
40085;DHT22;25786;51.504;7.344;2022-11-11T04:05:08;9.90;77.10
40085;DHT22;25786;51.504;7.344;2022-11-11T04:07:52;9.90;77.10
40085;DHT22;25786;51.504;7.344;2022-11-11T04:10:37;9.90;77.00
40085;DHT22;25786;51.504;7.344;2022-11-11T04:13:02;10.00;76.80
40085;DHT22;25786;51.504;7.344;2022-11-11T04:15:51;10.00;77.10
40085;DHT22;25786;51.504;7.344;2022-11-11T04:18:32;9.90;76.80
40085;DHT22;25786;51.504;7.344;2022-11-11T04:21:17;10.00;76.80
40085;DHT22;25786;51.504;7.344;2022-11-11T04:24:01;9.90;77.30
40085;DHT22;25786;51.504;7.344;2022-11-11T04:26:26;9.90;77.10
40085;DHT22;25786;51.504;7.344;2022-11-11T04:28:52;9.90;77.00
40085;DHT22;25786;51.504;7.344;2022-11-11T04:31:36;9.90;77.00
40085;DHT22;25786;51.504;7.344;2022-11-11T04:34:21;9.90;76.80
40085;DHT22;25786;51.504;7.344;2022-11-11T04:36:47;9.90;76.90
40085;DHT22;25786;51.504;7.344;2022-11-11T04:39:12;9.80;76.90
40085;DHT22;25786;51.504;7.344;2022-11-11T04:41:56;9.80;77.10
40085;DHT22;25786;51.504;7.344;2022-11-11T04:44:22;9.80;77.30
40085;DHT22;25786;51.504;7.344;2022-11-11T04:47:06;9.80;77.80
40085;DHT22;25786;51.504;7.344;2022-11-11T04:49:31;9.80;77.60
40085;DHT22;25786;51.504;7.344;2022-11-11T04:51:56;9.80;77.70
40085;DHT22;25786;51.504;7.344;2022-11-11T04:54:41;9.80;77.30
40085;DHT22;25786;51.504;7.344;2022-11-11T04:57:26;9.80;77.40
40085;DHT22;25786;51.504;7.344;2022-11-11T04:59:52;9.80;77.80
40085;DHT22;25786;51.504;7.344;2022-11-11T05:02:17;9.80;77.30
40085;DHT22;25786;51.504;7.344;2022-11-11T05:05:01;9.80;77.20
40085;DHT22;25786;51.504;7.344;2022-11-11T05:07:27;9.90;76.60
40085;DHT22;25786;51.504;7.344;2022-11-11T05:10:11;9.90;76.80
40085;DHT22;25786;51.504;7.344;2022-11-11T05:12:37;9.90;76.10
40085;DHT22;25786;51.504;7.344;2022-11-11T05:15:02;9.90;76.20
40085;DHT22;25786;51.504;7.344;2022-11-11T05:17:46;9.90;76.10
40085;DHT22;25786;51.504;7.344;2022-11-11T05:20:31;9.80;76.30
40085;DHT22;25786;51.504;7.344;2022-11-11T05:23:15;9.80;76.50
40085;DHT22;25786;51.504;7.344;2022-11-11T05:25:40;9.80;76.50
40085;DHT22;25786;51.504;7.344;2022-11-11T05:28:06;9.90;76.30
40085;DHT22;25786;51.504;7.344;2022-11-11T05:30:31;9.90;76.30
40085;DHT22;25786;51.504;7.344;2022-11-11T05:32:58;9.80;76.40
40085;DHT22;25786;51.504;7.344;2022-11-11T05:35:24;9.80;76.60
40085;DHT22;25786;51.504;7.344;2022-11-11T05:37:49;9.80;76.50
40085;DHT22;25786;51.504;7.344;2022-11-11T05:40:34;9.90;76.30
40085;DHT22;25786;51.504;7.344;2022-11-11T05:42:59;9.80;76.40
40085;DHT22;25786;51.504;7.344;2022-11-11T05:45:24;9.90;76.00
40085;DHT22;25786;51.504;7.344;2022-11-11T05:47:50;9.80;76.10
40085;DHT22;25786;51.504;7.344;2022-11-11T05:50:15;9.80;76.20
40085;DHT22;25786;51.504;7.344;2022-11-11T05:52:46;9.80;76.50
40085;DHT22;25786;51.504;7.344;2022-11-11T05:55:11;9.80;76.20
40085;DHT22;25786;51.504;7.344;2022-11-11T05:57:36;9.80;76.00
40085;DHT22;25786;51.504;7.344;2022-11-11T06:00:02;9.80;76.30
40085;DHT22;25786;51.504;7.344;2022-11-11T06:02:28;9.70;76.60
40085;DHT22;25786;51.504;7.344;2022-11-11T06:04:53;9.80;76.30
40085;DHT22;25786;51.504;7.344;2022-11-11T06:07:19;9.80;76.40
40085;DHT22;25786;51.504;7.344;2022-11-11T06:09:45;9.80;76.40
40085;DHT22;25786;51.504;7.344;2022-11-11T06:12:10;9.80;76.40
40085;DHT22;25786;51.504;7.344;2022-11-11T06:14:35;9.80;76.70
40085;DHT22;25786;51.504;7.344;2022-11-11T06:17:01;9.80;76.70
40085;DHT22;25786;51.504;7.344;2022-11-11T06:19:26;9.80;76.80
40085;DHT22;25786;51.504;7.344;2022-11-11T06:21:52;9.80;76.50
40085;DHT22;25786;51.504;7.344;2022-11-11T06:24:24;9.80;76.60
40085;DHT22;25786;51.504;7.344;2022-11-11T06:26:50;9.80;77.00
40085;DHT22;25786;51.504;7.344;2022-11-11T06:29:15;9.80;76.60
40085;DHT22;25786;51.504;7.344;2022-11-11T06:31:41;9.70;76.90
40085;DHT22;25786;51.504;7.344;2022-11-11T06:34:06;9.70;77.40
40085;DHT22;25786;51.504;7.344;2022-11-11T06:36:32;9.70;77.50
40085;DHT22;25786;51.504;7.344;2022-11-11T06:38:57;9.70;77.50
40085;DHT22;25786;51.504;7.344;2022-11-11T06:41:23;9.60;77.90
40085;DHT22;25786;51.504;7.344;2022-11-11T06:43:49;9.60;77.80
40085;DHT22;25786;51.504;7.344;2022-11-11T06:46:16;9.60;77.50
40085;DHT22;25786;51.504;7.344;2022-11-11T06:48:43;9.70;77.60
40085;DHT22;25786;51.504;7.344;2022-11-11T06:51:09;9.70;77.70
40085;DHT22;25786;51.504;7.344;2022-11-11T06:53:36;9.60;77.90
40085;DHT22;25786;51.504;7.344;2022-11-11T06:56:01;9.60;77.80
40085;DHT22;25786;51.504;7.344;2022-11-11T06:58:30;9.70;77.50
40085;DHT22;25786;51.504;7.344;2022-11-11T07:00:55;9.70;77.10
40085;DHT22;25786;51.504;7.344;2022-11-11T07:03:21;9.70;77.20
40085;DHT22;25786;51.504;7.344;2022-11-11T07:05:46;9.70;77.00
40085;DHT22;25786;51.504;7.344;2022-11-11T07:08:13;9.70;77.00
40085;DHT22;25786;51.504;7.344;2022-11-11T07:10:39;9.70;77.30
40085;DHT22;25786;51.504;7.344;2022-11-11T07:13:08;9.60;77.30
40085;DHT22;25786;51.504;7.344;2022-11-11T07:15:34;9.70;77.10
40085;DHT22;25786;51.504;7.344;2022-11-11T07:18:00;9.70;76.90
40085;DHT22;25786;51.504;7.344;2022-11-11T07:20:25;9.70;77.20
40085;DHT22;25786;51.504;7.344;2022-11-11T07:22:51;9.70;77.60
40085;DHT22;25786;51.504;7.344;2022-11-11T07:25:16;9.70;77.80
40085;DHT22;25786;51.504;7.344;2022-11-11T07:27:42;9.80;77.60
40085;DHT22;25786;51.504;7.344;2022-11-11T07:30:08;9.80;77.30
40085;DHT22;25786;51.504;7.344;2022-11-11T07:32:34;9.80;77.30
40085;DHT22;25786;51.504;7.344;2022-11-11T07:34:59;9.90;77.20
40085;DHT22;25786;51.504;7.344;2022-11-11T07:37:25;9.90;77.10
40085;DHT22;25786;51.504;7.344;2022-11-11T07:39:50;9.90;76.60
40085;DHT22;25786;51.504;7.344;2022-11-11T07:42:16;9.90;76.90
40085;DHT22;25786;51.504;7.344;2022-11-11T07:44:41;10.10;76.90
40085;DHT22;25786;51.504;7.344;2022-11-11T07:47:07;10.00;76.80
40085;DHT22;25786;51.504;7.344;2022-11-11T07:49:32;10.00;77.30
40085;DHT22;25786;51.504;7.344;2022-11-11T07:51:58;10.00;77.30
40085;DHT22;25786;51.504;7.344;2022-11-11T07:54:24;10.10;76.80
40085;DHT22;25786;51.504;7.344;2022-11-11T07:56:49;10.10;76.40
40085;DHT22;25786;51.504;7.344;2022-11-11T07:59:15;10.10;77.00
40085;DHT22;25786;51.504;7.344;2022-11-11T08:01:40;10.10;76.60
40085;DHT22;25786;51.504;7.344;2022-11-11T08:04:06;10.10;76.90
40085;DHT22;25786;51.504;7.344;2022-11-11T08:06:31;10.20;76.60
40085;DHT22;25786;51.504;7.344;2022-11-11T08:08:57;10.20;76.70
40085;DHT22;25786;51.504;7.344;2022-11-11T08:11:22;10.30;76.10
40085;DHT22;25786;51.504;7.344;2022-11-11T08:14:07;10.30;76.30
40085;DHT22;25786;51.504;7.344;2022-11-11T08:16:32;10.40;76.20
40085;DHT22;25786;51.504;7.344;2022-11-11T08:18:58;10.50;76.40
40085;DHT22;25786;51.504;7.344;2022-11-11T08:21:23;10.50;76.90
40085;DHT22;25786;51.504;7.344;2022-11-11T08:23:49;10.60;76.60
40085;DHT22;25786;51.504;7.344;2022-11-11T08:26:16;10.60;76.50
40085;DHT22;25786;51.504;7.344;2022-11-11T08:28:42;10.60;76.40
40085;DHT22;25786;51.504;7.344;2022-11-11T08:31:07;10.70;75.80
40085;DHT22;25786;51.504;7.344;2022-11-11T08:33:34;10.80;75.90
40085;DHT22;25786;51.504;7.344;2022-11-11T08:35:59;10.80;75.70
40085;DHT22;25786;51.504;7.344;2022-11-11T08:38:26;10.90;75.50
40085;DHT22;25786;51.504;7.344;2022-11-11T08:40:52;11.00;75.20
40085;DHT22;25786;51.504;7.344;2022-11-11T08:43:17;11.10;74.60
40085;DHT22;25786;51.504;7.344;2022-11-11T08:45:43;11.00;74.60
40085;DHT22;25786;51.504;7.344;2022-11-11T08:48:09;11.10;75.10
40085;DHT22;25786;51.504;7.344;2022-11-11T08:50:35;11.20;74.10
40085;DHT22;25786;51.504;7.344;2022-11-11T08:53:01;11.20;74.60
40085;DHT22;25786;51.504;7.344;2022-11-11T08:55:26;11.30;73.50
40085;DHT22;25786;51.504;7.344;2022-11-11T08:57:58;11.50;72.70
40085;DHT22;25786;51.504;7.344;2022-11-11T09:00:24;11.40;72.50
40085;DHT22;25786;51.504;7.344;2022-11-11T09:02:50;11.50;72.70
40085;DHT22;25786;51.504;7.344;2022-11-11T09:05:15;11.50;72.50
40085;DHT22;25786;51.504;7.344;2022-11-11T09:07:40;11.50;72.20
40085;DHT22;25786;51.504;7.344;2022-11-11T09:10:06;11.60;71.70
40085;DHT22;25786;51.504;7.344;2022-11-11T09:12:32;11.60;71.80
40085;DHT22;25786;51.504;7.344;2022-11-11T09:14:57;11.60;71.70
40085;DHT22;25786;51.504;7.344;2022-11-11T09:17:23;11.60;71.10
40085;DHT22;25786;51.504;7.344;2022-11-11T09:19:48;11.80;70.60
40085;DHT22;25786;51.504;7.344;2022-11-11T09:22:14;11.80;70.50
40085;DHT22;25786;51.504;7.344;2022-11-11T09:24:39;11.90;69.90
40085;DHT22;25786;51.504;7.344;2022-11-11T09:27:05;11.90;69.80
40085;DHT22;25786;51.504;7.344;2022-11-11T09:29:30;12.00;69.20
40085;DHT22;25786;51.504;7.344;2022-11-11T09:31:55;12.00;69.20
40085;DHT22;25786;51.504;7.344;2022-11-11T09:34:21;12.00;69.00
40085;DHT22;25786;51.504;7.344;2022-11-11T09:36:46;12.00;69.10
40085;DHT22;25786;51.504;7.344;2022-11-11T09:39:12;12.00;69.10
40085;DHT22;25786;51.504;7.344;2022-11-11T09:44:17;12.00;69.00
40085;DHT22;25786;51.504;7.344;2022-11-11T09:46:58;12.10;68.70
40085;DHT22;25786;51.504;7.344;2022-11-11T09:49:27;12.20;68.40
40085;DHT22;25786;51.504;7.344;2022-11-11T09:52:00;12.30;67.80
40085;DHT22;25786;51.504;7.344;2022-11-11T09:54:29;12.30;67.80
40085;DHT22;25786;51.504;7.344;2022-11-11T09:56:58;12.20;68.10
40085;DHT22;25786;51.504;7.344;2022-11-11T09:59:27;12.20;68.20
40085;DHT22;25786;51.504;7.344;2022-11-11T10:01:55;12.30;68.30
40085;DHT22;25786;51.504;7.344;2022-11-11T10:04:34;12.40;68.20
40085;DHT22;25786;51.504;7.344;2022-11-11T10:07:03;12.50;67.90
40085;DHT22;25786;51.504;7.344;2022-11-11T10:09:32;12.50;67.80
40085;DHT22;25786;51.504;7.344;2022-11-11T10:12:10;12.50;67.90
40085;DHT22;25786;51.504;7.344;2022-11-11T10:14:41;12.50;68.00
40085;DHT22;25786;51.504;7.344;2022-11-11T10:22:49;12.50;68.20
40085;DHT22;25786;51.504;7.344;2022-11-11T10:25:18;12.50;68.00
40085;DHT22;25786;51.504;7.344;2022-11-11T10:27:45;12.60;67.30
40085;DHT22;25786;51.504;7.344;2022-11-11T10:30:22;12.70;67.10
40085;DHT22;25786;51.504;7.344;2022-11-11T10:32:52;12.80;66.60
40085;DHT22;25786;51.504;7.344;2022-11-11T10:35:20;12.90;66.80
40085;DHT22;25786;51.504;7.344;2022-11-11T10:37:46;13.00;66.30
40085;DHT22;25786;51.504;7.344;2022-11-11T10:42:38;13.30;66.10
40085;DHT22;25786;51.504;7.344;2022-11-11T10:45:07;13.30;65.60
40085;DHT22;25786;51.504;7.344;2022-11-11T10:47:43;13.20;65.90
40085;DHT22;25786;51.504;7.344;2022-11-11T10:50:17;13.30;65.00
40085;DHT22;25786;51.504;7.344;2022-11-11T10:52:47;13.20;65.40
40085;DHT22;25786;51.504;7.344;2022-11-11T10:55:26;13.10;66.00
40085;DHT22;25786;51.504;7.344;2022-11-11T10:57:56;13.10;65.80
40085;DHT22;25786;51.504;7.344;2022-11-11T11:00:24;13.10;65.90
40085;DHT22;25786;51.504;7.344;2022-11-11T11:05:32;13.40;64.60
40085;DHT22;25786;51.504;7.344;2022-11-11T11:08:02;13.40;65.10
40085;DHT22;25786;51.504;7.344;2022-11-11T11:10:35;13.40;65.00
40085;DHT22;25786;51.504;7.344;2022-11-11T11:13:05;13.50;64.30
40085;DHT22;25786;51.504;7.344;2022-11-11T11:15:32;13.50;64.20
40085;DHT22;25786;51.504;7.344;2022-11-11T11:18:02;13.60;63.30
40085;DHT22;25786;51.504;7.344;2022-11-11T11:20:28;13.60;63.80
40085;DHT22;25786;51.504;7.344;2022-11-11T11:22:55;13.60;63.30
40085;DHT22;25786;51.504;7.344;2022-11-11T11:25:23;13.70;63.10
40085;DHT22;25786;51.504;7.344;2022-11-11T11:27:51;13.80;62.20
40085;DHT22;25786;51.504;7.344;2022-11-11T11:30:21;14.00;61.30
40085;DHT22;25786;51.504;7.344;2022-11-11T11:33:03;14.00;60.70
40085;DHT22;25786;51.504;7.344;2022-11-11T11:35:36;14.00;61.10
40085;DHT22;25786;51.504;7.344;2022-11-11T11:38:02;14.10;60.20
40085;DHT22;25786;51.504;7.344;2022-11-11T11:40:43;14.20;59.70
40085;DHT22;25786;51.504;7.344;2022-11-11T11:43:22;14.30;59.90
40085;DHT22;25786;51.504;7.344;2022-11-11T11:45:53;14.30;58.90
40085;DHT22;25786;51.504;7.344;2022-11-11T11:48:38;14.40;57.90
40085;DHT22;25786;51.504;7.344;2022-11-11T11:54:10;14.50;56.90
40085;DHT22;25786;51.504;7.344;2022-11-11T11:56:37;14.50;56.40
40085;DHT22;25786;51.504;7.344;2022-11-11T11:59:05;14.60;56.40
40085;DHT22;25786;51.504;7.344;2022-11-11T12:04:34;14.70;56.40
40085;DHT22;25786;51.504;7.344;2022-11-11T12:06:58;14.70;56.30
40085;DHT22;25786;51.504;7.344;2022-11-11T12:09:28;14.60;56.00
40085;DHT22;25786;51.504;7.344;2022-11-11T12:12:00;14.60;56.10
40085;DHT22;25786;51.504;7.344;2022-11-11T12:16:57;14.60;56.10
40085;DHT22;25786;51.504;7.344;2022-11-11T12:24:37;14.60;56.00
40085;DHT22;25786;51.504;7.344;2022-11-11T12:30:02;14.70;56.00
40085;DHT22;25786;51.504;7.344;2022-11-11T12:32:35;14.60;56.60
40085;DHT22;25786;51.504;7.344;2022-11-11T12:37:34;14.60;56.70
40085;DHT22;25786;51.504;7.344;2022-11-11T12:42:35;14.50;56.30
40085;DHT22;25786;51.504;7.344;2022-11-11T12:45:08;14.50;56.70
40085;DHT22;25786;51.504;7.344;2022-11-11T12:47:42;14.50;55.90
40085;DHT22;25786;51.504;7.344;2022-11-11T12:53:12;14.50;56.40
40085;DHT22;25786;51.504;7.344;2022-11-11T13:00:30;14.60;55.80
40085;DHT22;25786;51.504;7.344;2022-11-11T13:13:38;14.60;56.30
40085;DHT22;25786;51.504;7.344;2022-11-11T13:16:07;14.60;56.00
40085;DHT22;25786;51.504;7.344;2022-11-11T13:21:03;14.70;55.70
40085;DHT22;25786;51.504;7.344;2022-11-11T13:23:30;14.60;55.50
40085;DHT22;25786;51.504;7.344;2022-11-11T13:25:57;14.70;55.40
40085;DHT22;25786;51.504;7.344;2022-11-11T13:28:36;14.80;55.40
40085;DHT22;25786;51.504;7.344;2022-11-11T13:31:18;14.70;55.20
40085;DHT22;25786;51.504;7.344;2022-11-11T13:33:52;14.60;55.50
40085;DHT22;25786;51.504;7.344;2022-11-11T13:36:20;14.50;55.70
40085;DHT22;25786;51.504;7.344;2022-11-11T13:38:47;14.50;56.20
40085;DHT22;25786;51.504;7.344;2022-11-11T13:41:36;14.50;55.60
40085;DHT22;25786;51.504;7.344;2022-11-11T13:44:05;14.60;55.90
40085;DHT22;25786;51.504;7.344;2022-11-11T13:48:57;14.60;55.30
40085;DHT22;25786;51.504;7.344;2022-11-11T13:51:24;14.60;55.90
40085;DHT22;25786;51.504;7.344;2022-11-11T13:53:50;14.60;56.10
40085;DHT22;25786;51.504;7.344;2022-11-11T13:56:40;14.60;55.40
40085;DHT22;25786;51.504;7.344;2022-11-11T13:59:07;14.60;55.30
40085;DHT22;25786;51.504;7.344;2022-11-11T14:01:39;14.60;55.60
40085;DHT22;25786;51.504;7.344;2022-11-11T14:04:06;14.60;56.00
40085;DHT22;25786;51.504;7.344;2022-11-11T14:06:48;14.60;55.50
40085;DHT22;25786;51.504;7.344;2022-11-11T14:14:44;14.60;55.70
40085;DHT22;25786;51.504;7.344;2022-11-11T14:17:13;14.50;56.40
40085;DHT22;25786;51.504;7.344;2022-11-11T14:19:39;14.40;58.80
40085;DHT22;25786;51.504;7.344;2022-11-11T14:24:49;14.10;61.90
40085;DHT22;25786;51.504;7.344;2022-11-11T14:27:15;14.10;62.10
40085;DHT22;25786;51.504;7.344;2022-11-11T14:29:51;14.00;62.80
40085;DHT22;25786;51.504;7.344;2022-11-11T14:32:39;14.00;63.30
40085;DHT22;25786;51.504;7.344;2022-11-11T14:40:38;14.00;62.60
40085;DHT22;25786;51.504;7.344;2022-11-11T14:50:58;13.50;65.80
40085;DHT22;25786;51.504;7.344;2022-11-11T14:53:24;13.40;65.80
40085;DHT22;25786;51.504;7.344;2022-11-11T14:55:57;13.40;66.20
40085;DHT22;25786;51.504;7.344;2022-11-11T15:01:24;13.30;65.50
40085;DHT22;25786;51.504;7.344;2022-11-11T15:03:53;13.40;66.10
40085;DHT22;25786;51.504;7.344;2022-11-11T15:08:56;13.30;66.30
40085;DHT22;25786;51.504;7.344;2022-11-11T15:21:55;13.10;67.90
40085;DHT22;25786;51.504;7.344;2022-11-11T15:24:47;13.10;67.60
40085;DHT22;25786;51.504;7.344;2022-11-11T15:27:19;13.00;68.60
40085;DHT22;25786;51.504;7.344;2022-11-11T15:29:56;12.90;68.70
40085;DHT22;25786;51.504;7.344;2022-11-11T15:32:34;12.90;69.10
40085;DHT22;25786;51.504;7.344;2022-11-11T15:37:38;12.80;70.00
40085;DHT22;25786;51.504;7.344;2022-11-11T15:45:43;12.50;71.70
40085;DHT22;25786;51.504;7.344;2022-11-11T15:48:14;12.30;72.40
40085;DHT22;25786;51.504;7.344;2022-11-11T15:50:40;12.20;72.50
40085;DHT22;25786;51.504;7.344;2022-11-11T15:53:09;12.10;72.80
40085;DHT22;25786;51.504;7.344;2022-11-11T15:55:35;12.10;73.70
40085;DHT22;25786;51.504;7.344;2022-11-11T15:58:07;12.10;73.60
40085;DHT22;25786;51.504;7.344;2022-11-11T16:00:33;12.00;74.00
40085;DHT22;25786;51.504;7.344;2022-11-11T16:02:59;11.80;74.30
40085;DHT22;25786;51.504;7.344;2022-11-11T16:05:27;11.80;74.60
40085;DHT22;25786;51.504;7.344;2022-11-11T16:08:01;11.70;75.00
40085;DHT22;25786;51.504;7.344;2022-11-11T16:10:31;11.70;74.70
40085;DHT22;25786;51.504;7.344;2022-11-11T16:13:19;11.60;74.90
40085;DHT22;25786;51.504;7.344;2022-11-11T16:18:14;11.60;75.70
40085;DHT22;25786;51.504;7.344;2022-11-11T16:23:50;11.50;75.90
40085;DHT22;25786;51.504;7.344;2022-11-11T16:32:32;11.30;76.00
40085;DHT22;25786;51.504;7.344;2022-11-11T16:35:20;11.20;76.40
40085;DHT22;25786;51.504;7.344;2022-11-11T16:37:52;11.10;76.70
40085;DHT22;25786;51.504;7.344;2022-11-11T16:46:00;11.10;76.60
40085;DHT22;25786;51.504;7.344;2022-11-11T16:51:02;11.10;76.60
40085;DHT22;25786;51.504;7.344;2022-11-11T16:53:29;11.00;76.80
40085;DHT22;25786;51.504;7.344;2022-11-11T16:55:57;11.10;76.70
40085;DHT22;25786;51.504;7.344;2022-11-11T16:58:23;11.10;76.90
40085;DHT22;25786;51.504;7.344;2022-11-11T17:00:49;11.10;77.10
40085;DHT22;25786;51.504;7.344;2022-11-11T17:03:23;11.10;77.30
40085;DHT22;25786;51.504;7.344;2022-11-11T17:05:53;11.00;77.20
40085;DHT22;25786;51.504;7.344;2022-11-11T17:08:34;11.00;77.20
40085;DHT22;25786;51.504;7.344;2022-11-11T17:11:03;10.90;77.50
40085;DHT22;25786;51.504;7.344;2022-11-11T17:13:29;10.90;77.40
40085;DHT22;25786;51.504;7.344;2022-11-11T17:15:55;10.90;77.60
40085;DHT22;25786;51.504;7.344;2022-11-11T17:18:22;10.80;77.70
40085;DHT22;25786;51.504;7.344;2022-11-11T17:20:48;10.80;77.30
40085;DHT22;25786;51.504;7.344;2022-11-11T17:23:15;10.70;77.80
40085;DHT22;25786;51.504;7.344;2022-11-11T17:25:41;10.70;77.70
40085;DHT22;25786;51.504;7.344;2022-11-11T17:28:06;10.70;77.80
40085;DHT22;25786;51.504;7.344;2022-11-11T17:30:34;10.60;77.40
40085;DHT22;25786;51.504;7.344;2022-11-11T17:33:00;10.60;77.70
40085;DHT22;25786;51.504;7.344;2022-11-11T17:35:25;10.50;78.10
40085;DHT22;25786;51.504;7.344;2022-11-11T17:37:51;10.50;78.20
40085;DHT22;25786;51.504;7.344;2022-11-11T17:40:16;10.50;78.00
40085;DHT22;25786;51.504;7.344;2022-11-11T17:42:42;10.50;77.90
40085;DHT22;25786;51.504;7.344;2022-11-11T17:45:07;10.40;77.90
40085;DHT22;25786;51.504;7.344;2022-11-11T17:47:33;10.40;78.10
40085;DHT22;25786;51.504;7.344;2022-11-11T17:49:58;10.40;78.10
40085;DHT22;25786;51.504;7.344;2022-11-11T17:52:24;10.40;77.80
40085;DHT22;25786;51.504;7.344;2022-11-11T17:54:50;10.30;78.20
40085;DHT22;25786;51.504;7.344;2022-11-11T17:57:15;10.30;78.60
40085;DHT22;25786;51.504;7.344;2022-11-11T17:59:41;10.30;78.60